createdAt,value
2022-11-07T00:01:22.424Z,100479.84
2022-11-07T00:03:49.506Z,100482.47
2022-11-07T00:06:16.144Z,100483.34
2022-11-07T00:08:42.714Z,100478.81
2022-11-07T00:11:09.344Z,100486.66
2022-11-07T00:13:38.920Z,100473.31
2022-11-07T00:16:10.728Z,100471.53
2022-11-07T00:18:37.330Z,100467.06
2022-11-07T00:21:05.926Z,100469.72
2022-11-07T00:23:33.832Z,100475.78
2022-11-07T00:26:12.872Z,100475.75
2022-11-07T00:28:44.025Z,100473.09
2022-11-07T00:31:12.972Z,100467.81
2022-11-07T00:33:40.087Z,100468.69
2022-11-07T00:36:08.019Z,100468.69
2022-11-07T00:38:34.626Z,100473.03
2022-11-07T00:41:03.833Z,100466.81
2022-11-07T00:43:30.957Z,100454.53
2022-11-07T00:46:00.574Z,100454.59
2022-11-07T00:48:27.124Z,100469.56
2022-11-07T00:50:53.705Z,100454.59
2022-11-07T00:53:23.067Z,100452.84
2022-11-07T00:55:49.970Z,100440.59
2022-11-07T00:58:17.468Z,100445.00
2022-11-07T01:00:44.165Z,100457.44
2022-11-07T01:03:29.166Z,100457.47
2022-11-07T01:06:05.471Z,100455.81
2022-11-07T01:08:32.313Z,100449.72
2022-11-07T01:10:59.644Z,100455.91
2022-11-07T01:13:26.367Z,100463.00
2022-11-07T01:15:53.225Z,100458.56
2022-11-07T01:18:19.887Z,100455.06
2022-11-07T01:20:48.811Z,100452.53
2022-11-07T01:23:16.305Z,100448.13
2022-11-07T01:25:45.150Z,100449.00
2022-11-07T01:28:12.095Z,100450.72
2022-11-07T01:30:43.345Z,100448.88
2022-11-07T01:33:10.785Z,100439.19
2022-11-07T01:35:38.067Z,100439.13
2022-11-07T01:38:05.344Z,100446.97
2022-11-07T01:40:33.813Z,100447.75
2022-11-07T01:43:00.368Z,100433.53
2022-11-07T01:45:30.933Z,100427.31
2022-11-07T01:48:00.277Z,100422.88
2022-11-07T01:50:27.706Z,100430.81
2022-11-07T01:52:56.061Z,100424.59
2022-11-07T01:55:30.622Z,100420.31
2022-11-07T01:58:07.582Z,100414.16
2022-11-07T02:00:35.722Z,100416.84
2022-11-07T02:03:11.044Z,100419.56
2022-11-07T02:05:45.812Z,100424.94
2022-11-07T02:08:14.100Z,100409.19
2022-11-07T02:10:42.331Z,100413.72
2022-11-07T02:13:09.400Z,100411.19
2022-11-07T02:15:37.100Z,100406.94
2022-11-07T02:18:03.929Z,100409.78
2022-11-07T02:20:30.524Z,100419.59
2022-11-07T02:23:01.148Z,100421.50
2022-11-07T02:25:27.807Z,100403.09
2022-11-07T02:27:59.963Z,100404.09
2022-11-07T02:30:30.377Z,100398.09
2022-11-07T02:32:57.129Z,100394.72
2022-11-07T02:35:32.836Z,100397.53
2022-11-07T02:37:59.821Z,100399.31
2022-11-07T02:40:27.774Z,100387.81
2022-11-07T02:42:54.720Z,100384.25
2022-11-07T02:45:26.711Z,100378.94
2022-11-07T02:47:53.485Z,100378.06
2022-11-07T02:50:20.224Z,100379.84
2022-11-07T02:52:46.992Z,100374.59
2022-11-07T02:55:14.706Z,100386.91
2022-11-07T02:57:41.964Z,100385.16
2022-11-07T03:00:11.124Z,100378.06
2022-11-07T03:02:38.074Z,100374.50
2022-11-07T03:05:05.491Z,100357.72
2022-11-07T03:07:32.295Z,100356.88
2022-11-07T03:09:58.913Z,100363.94
2022-11-07T03:12:25.499Z,100353.28
2022-11-07T03:14:52.140Z,100346.28
2022-11-07T03:17:18.708Z,100344.50
2022-11-07T03:19:45.332Z,100347.13
2022-11-07T03:22:11.931Z,100342.69
2022-11-07T03:24:38.507Z,100329.47
2022-11-07T03:27:05.079Z,100325.91
2022-11-07T03:29:31.624Z,100323.25
2022-11-07T03:31:58.179Z,100315.22
2022-11-07T03:34:24.796Z,100312.59
2022-11-07T03:36:51.393Z,100294.94
2022-11-07T03:39:21.842Z,100304.66
2022-11-07T03:41:52.323Z,100299.38
2022-11-07T03:44:18.930Z,100294.09
2022-11-07T03:46:45.465Z,100295.88
2022-11-07T03:49:12.068Z,100299.31
2022-11-07T03:51:38.606Z,100296.66
2022-11-07T03:54:05.332Z,100296.66
2022-11-07T03:56:32.016Z,100292.13
2022-11-07T03:58:58.600Z,100283.22
2022-11-07T04:01:25.264Z,100276.97
2022-11-07T04:03:56.051Z,100271.63
2022-11-07T04:06:23.495Z,100272.44
2022-11-07T04:08:50.221Z,100268.88
2022-11-07T04:11:35.346Z,100269.66
2022-11-07T04:14:20.168Z,100280.13
2022-11-07T04:17:05.339Z,100276.53
2022-11-07T04:19:31.873Z,100263.25
2022-11-07T04:21:58.452Z,100257.91
2022-11-07T04:24:25.005Z,100256.97
2022-11-07T04:27:10.232Z,100250.72
2022-11-07T04:29:36.880Z,100255.06
2022-11-07T04:32:03.621Z,100262.91
2022-11-07T04:34:30.208Z,100259.22
2022-11-07T04:36:56.848Z,100259.22
2022-11-07T04:39:23.465Z,100252.09
2022-11-07T04:41:50.008Z,100253.94
2022-11-07T04:44:16.553Z,100243.22
2022-11-07T04:46:43.257Z,100248.41
2022-11-07T04:49:09.799Z,100254.53
2022-11-07T04:51:41.680Z,100249.00
2022-11-07T04:54:13.068Z,100250.53
2022-11-07T04:56:41.015Z,100259.91
2022-11-07T04:59:08.106Z,100249.09
2022-11-07T05:01:34.805Z,100245.41
2022-11-07T05:04:01.392Z,100250.59
2022-11-07T05:06:28.104Z,100251.22
2022-11-07T05:08:54.691Z,100242.13
2022-11-07T05:11:21.221Z,100237.47
2022-11-07T05:13:47.786Z,100223.13
2022-11-07T05:16:19.399Z,100202.59
2022-11-07T05:18:46.141Z,100206.88
2022-11-07T05:21:12.867Z,100201.31
2022-11-07T05:23:39.407Z,100194.16
2022-11-07T05:26:06.301Z,100180.72
2022-11-07T05:28:39.056Z,100177.09
2022-11-07T05:31:06.950Z,100177.91
2022-11-07T05:33:33.981Z,100176.03
2022-11-07T05:36:29.644Z,100178.63
2022-11-07T05:38:56.244Z,100175.91
2022-11-07T05:41:22.864Z,100183.81
2022-11-07T05:43:49.591Z,100182.78
2022-11-07T05:46:16.149Z,100178.31
2022-11-07T05:48:42.741Z,100179.09
2022-11-07T05:51:09.387Z,100181.69
2022-11-07T05:53:36.467Z,100181.59
2022-11-07T05:56:03.526Z,100186.75
2022-11-07T05:58:30.262Z,100209.63
2022-11-07T06:01:01.255Z,100206.94
2022-11-07T06:03:27.822Z,100206.94
2022-11-07T06:05:54.524Z,100212.97
2022-11-07T06:08:21.169Z,100208.50
2022-11-07T06:10:47.723Z,100202.28
2022-11-07T06:13:16.651Z,100205.66
2022-11-07T06:15:45.115Z,100200.34
2022-11-07T06:18:20.577Z,100208.25
2022-11-07T06:20:47.383Z,100215.31
2022-11-07T06:23:29.462Z,100218.84
2022-11-07T06:25:56.106Z,100217.13
2022-11-07T06:28:22.816Z,100230.31
2022-11-07T06:30:49.435Z,100226.72
2022-11-07T06:33:19.055Z,100217.91
2022-11-07T06:35:49.568Z,100225.91
2022-11-07T06:38:16.148Z,100220.69
2022-11-07T06:40:44.736Z,100226.84
2022-11-07T06:43:17.874Z,100234.75
2022-11-07T06:45:46.234Z,100230.38
2022-11-07T06:48:12.946Z,100231.31
2022-11-07T06:50:39.938Z,100226.81
2022-11-07T06:53:12.013Z,100231.31
2022-11-07T06:55:44.507Z,100228.66
2022-11-07T06:58:12.066Z,100226.00
2022-11-07T07:00:38.689Z,100226.81
2022-11-07T07:03:06.074Z,100219.75
2022-11-07T07:05:36.045Z,100210.03
2022-11-07T07:08:06.177Z,100217.13
2022-11-07T07:10:40.127Z,100216.25
2022-11-07T07:13:06.865Z,100219.84
2022-11-07T07:15:47.776Z,100214.41
2022-11-07T07:18:19.782Z,100219.72
2022-11-07T07:20:47.673Z,100194.06
2022-11-07T07:23:14.551Z,100193.13
2022-11-07T07:25:41.141Z,100199.38
2022-11-07T07:28:07.706Z,100193.13
2022-11-07T07:30:36.632Z,100187.84
2022-11-07T07:33:03.213Z,100185.19
2022-11-07T07:35:29.802Z,100166.63
2022-11-07T07:37:56.436Z,100142.78
2022-11-07T07:40:23.916Z,100130.47
2022-11-07T07:42:50.497Z,100135.78
2022-11-07T07:45:20.417Z,100128.69
2022-11-07T07:47:47.052Z,100110.22
2022-11-07T07:50:14.070Z,100101.38
2022-11-07T07:52:40.937Z,100096.06
2022-11-07T07:55:09.416Z,100114.69
2022-11-07T07:57:42.808Z,100131.47
2022-11-07T08:00:13.156Z,100116.56
2022-11-07T08:02:43.731Z,100098.81
2022-11-07T08:05:12.794Z,100086.50
2022-11-07T08:07:47.006Z,100115.69
2022-11-07T08:10:40.252Z,100121.84
2022-11-07T08:13:01.008Z,100112.09
2022-11-07T08:15:27.769Z,100116.56
2022-11-07T08:17:54.364Z,100108.47
2022-11-07T08:20:26.042Z,100108.47
2022-11-07T08:23:00.408Z,100102.25
2022-11-07T08:25:27.614Z,100092.44
2022-11-07T08:27:54.243Z,100097.69
2022-11-07T08:30:20.828Z,100095.88
2022-11-07T08:32:50.559Z,100095.81
2022-11-07T08:35:24.660Z,100083.50
2022-11-07T08:37:56.178Z,100076.41
2022-11-07T08:40:23.099Z,100086.06
2022-11-07T08:42:49.951Z,100078.09
2022-11-07T08:45:16.762Z,100080.63
2022-11-07T08:47:43.407Z,100080.63
2022-11-07T08:50:10.309Z,100075.19
2022-11-07T08:52:38.780Z,100073.34
2022-11-07T08:55:05.772Z,100062.59
2022-11-07T08:57:32.360Z,100065.88
2022-11-07T09:00:01.262Z,100049.94
2022-11-07T09:05:14.518Z,100073.63
2022-11-07T09:07:41.106Z,100072.66
2022-11-07T09:10:08.095Z,100068.13
2022-11-07T09:12:34.724Z,100066.34
2022-11-07T09:15:02.555Z,100057.41
2022-11-07T09:17:29.188Z,100066.91
2022-11-07T09:19:55.813Z,100063.31
2022-11-07T09:22:23.800Z,100062.38
2022-11-07T09:24:50.364Z,100056.94
2022-11-07T09:27:16.913Z,100046.28
2022-11-07T09:29:43.492Z,100048.84
2022-11-07T09:32:38.117Z,100048.84
2022-11-07T09:35:02.030Z,100039.97
2022-11-07T09:37:31.224Z,100029.28
2022-11-07T09:39:57.824Z,100038.94
2022-11-07T09:42:45.712Z,100047.75
2022-11-07T09:45:13.962Z,100041.69
2022-11-07T09:47:55.285Z,100037.38
2022-11-07T09:50:30.925Z,100051.44
2022-11-07T09:53:05.805Z,100034.66
2022-11-07T09:55:38.037Z,100030.22
2022-11-07T09:58:20.700Z,100028.44
2022-11-07T10:00:47.637Z,100036.38
2022-11-07T10:03:14.613Z,100032.78
2022-11-07T10:06:05.361Z,100028.44
2022-11-07T10:08:35.775Z,100023.03
2022-11-07T10:11:15.341Z,100023.88
2022-11-07T10:14:12.735Z,100017.59
2022-11-07T10:17:06.729Z,100021.03
2022-11-07T10:19:48.866Z,100020.81
2022-11-07T10:22:34.027Z,100016.28
2022-11-07T10:25:30.302Z,100020.50
2022-11-07T10:28:14.560Z,100017.84
2022-11-07T10:30:43.499Z,100006.31
2022-11-07T10:33:56.957Z,100005.44
2022-11-07T10:36:29.062Z,100001.94
2022-11-07T10:38:58.650Z,100006.44
2022-11-07T10:41:28.640Z,100007.38
2022-11-07T10:44:10.612Z,100002.09
2022-11-07T10:46:43.327Z,100011.84
2022-11-07T10:49:23.387Z,100005.69
2022-11-07T10:51:51.192Z,100006.53
2022-11-07T10:54:28.458Z,99995.84
2022-11-07T10:57:10.072Z,99992.19
2022-11-07T10:59:40.206Z,99993.03
2022-11-07T11:02:28.594Z,100004.44
2022-11-07T11:04:58.507Z,100000.78
2022-11-07T11:07:34.060Z,99994.44
2022-11-07T11:10:00.723Z,99987.44
2022-11-07T11:12:34.492Z,99988.22
2022-11-07T11:15:07.276Z,99987.28
2022-11-07T11:17:34.364Z,99990.88
2022-11-07T11:20:04.524Z,99982.13
2022-11-07T11:22:31.397Z,99991.19
2022-11-07T11:25:21.097Z,99994.94
2022-11-07T11:28:11.848Z,99992.41
2022-11-07T11:30:39.167Z,99984.59
2022-11-07T11:33:13.898Z,99983.91
2022-11-07T11:35:49.292Z,99975.16
2022-11-07T11:38:28.688Z,99969.00
2022-11-07T11:41:13.257Z,99967.19
2022-11-07T11:43:58.166Z,99962.75
2022-11-07T11:46:35.032Z,99953.00
2022-11-07T11:49:13.504Z,99956.44
2022-11-07T11:51:48.870Z,99954.63
2022-11-07T11:54:16.961Z,99944.03
2022-11-07T11:57:03.449Z,99952.00
2022-11-07T11:59:54.750Z,99946.78
2022-11-07T12:02:21.334Z,99952.13
2022-11-07T12:04:53.757Z,99953.06
2022-11-07T12:07:45.901Z,99946.06
2022-11-07T12:10:29.194Z,99944.41
2022-11-07T12:12:55.781Z,99938.31
2022-11-07T12:15:52.814Z,99933.97
2022-11-07T12:18:22.884Z,99933.25
2022-11-07T12:21:13.200Z,99923.59
2022-11-07T12:24:16.471Z,99934.34
2022-11-07T12:27:16.143Z,99922.19
2022-11-07T12:30:13.562Z,99925.84
2022-11-07T12:33:08.002Z,99912.81
2022-11-07T12:35:57.481Z,99910.41
2022-11-07T12:38:51.391Z,99915.88
2022-11-07T12:41:56.411Z,99908.16
2022-11-07T12:45:01.797Z,99916.16
2022-11-07T12:47:34.251Z,99912.88
2022-11-07T12:50:45.115Z,99902.50
2022-11-07T12:53:24.476Z,99893.06
2022-11-07T12:56:15.568Z,99883.53
2022-11-07T12:58:46.155Z,99893.34
2022-11-07T13:01:22.465Z,99883.03
2022-11-07T13:04:30.628Z,99889.28
2022-11-07T13:07:08.634Z,99885.06
2022-11-07T13:09:52.577Z,99890.50
2022-11-07T13:12:40.495Z,99883.47
2022-11-07T13:15:10.597Z,99875.53
2022-11-07T13:17:46.181Z,99876.38
2022-11-07T13:20:21.673Z,99877.28
2022-11-07T13:22:53.532Z,99871.03
2022-11-07T13:25:30.166Z,99873.53
2022-11-07T13:27:56.726Z,99876.94
2022-11-07T13:30:35.758Z,99868.09
2022-11-07T13:33:04.161Z,99874.25
2022-11-07T13:35:36.170Z,99866.22
2022-11-07T13:38:16.397Z,99860.84
2022-11-07T13:41:02.150Z,99863.50
2022-11-07T13:44:00.832Z,99851.03
2022-11-07T13:47:02.796Z,99861.47
2022-11-07T13:49:45.044Z,99856.88
2022-11-07T13:52:23.313Z,99853.31
2022-11-07T13:54:57.146Z,99857.69
2022-11-07T13:57:29.037Z,99852.38
2022-11-07T14:00:05.132Z,99848.72
2022-11-07T14:02:34.590Z,99844.28
2022-11-07T14:05:16.408Z,99841.53
2022-11-07T14:07:48.529Z,99840.69
2022-11-07T14:10:22.221Z,99842.41
2022-11-07T14:12:50.668Z,99838.84
2022-11-07T14:15:17.702Z,99837.91
2022-11-07T14:17:46.030Z,99841.41
2022-11-07T14:20:14.383Z,99833.44
2022-11-07T14:22:51.301Z,99836.09
2022-11-07T14:25:22.402Z,99833.53
2022-11-07T14:27:50.225Z,99826.50
2022-11-07T14:30:19.173Z,99821.19
2022-11-07T14:32:55.564Z,99816.84
2022-11-07T14:35:29.683Z,99819.50
2022-11-07T14:37:57.669Z,99814.19
2022-11-07T14:40:25.895Z,99814.19
2022-11-07T14:42:53.328Z,99805.47
2022-11-07T14:45:46.736Z,99814.34
2022-11-07T14:48:13.076Z,99801.09
2022-11-07T14:50:40.915Z,99802.03
2022-11-07T14:53:27.872Z,99806.47
2022-11-07T14:55:57.496Z,99803.88
2022-11-07T14:58:25.683Z,99793.44
2022-11-07T15:01:11.097Z,99787.22
2022-11-07T15:03:51.770Z,99784.59
2022-11-07T15:06:28.640Z,99775.84
2022-11-07T15:08:58.690Z,99772.44
2022-11-07T15:11:30.178Z,99754.94
2022-11-07T15:13:59.147Z,99762.03
2022-11-07T15:16:33.472Z,99767.28
2022-11-07T15:19:03.108Z,99768.19
2022-11-07T15:21:39.089Z,99763.84
2022-11-07T15:24:33.939Z,99778.03
2022-11-07T15:27:20.815Z,99776.22
2022-11-07T15:29:56.343Z,99770.00
2022-11-07T15:32:25.464Z,99762.97
2022-11-07T15:37:41.355Z,99757.53
2022-11-07T15:40:27.859Z,99756.59
2022-11-07T15:42:54.739Z,99753.94
2022-11-07T15:45:21.877Z,99750.34
2022-11-07T15:47:49.412Z,99751.25
2022-11-07T15:50:17.405Z,99744.91
2022-11-07T15:52:45.013Z,99736.09
2022-11-07T15:55:13.682Z,99738.59
2022-11-07T15:57:41.253Z,99731.50
2022-11-07T16:00:14.673Z,99716.47
2022-11-07T16:02:41.885Z,99713.81
2022-11-07T16:05:09.063Z,99711.16
2022-11-07T16:07:36.268Z,99718.97
2022-11-07T16:10:04.679Z,99718.97
2022-11-07T16:12:31.271Z,99716.31
2022-11-07T16:14:59.353Z,99703.84
2022-11-07T16:17:26.522Z,99698.47
2022-11-07T16:19:57.425Z,99702.75
2022-11-07T16:22:26.769Z,99704.47
2022-11-07T16:24:53.292Z,99692.94
2022-11-07T16:27:19.961Z,99693.69
2022-11-07T16:29:49.700Z,99687.53
2022-11-07T16:32:18.430Z,99687.44
2022-11-07T16:34:45.511Z,99689.09
2022-11-07T16:37:12.440Z,99687.13
2022-11-07T16:39:39.050Z,99679.19
2022-11-07T16:42:05.948Z,99682.63
2022-11-07T16:44:32.580Z,99673.81
2022-11-07T16:47:05.684Z,99665.03
2022-11-07T16:49:33.911Z,99660.47
2022-11-07T16:52:00.753Z,99662.13
2022-11-07T16:54:27.402Z,99668.28
2022-11-07T16:56:54.099Z,99656.72
2022-11-07T16:59:22.648Z,99655.75
2022-11-07T17:01:52.458Z,99657.44
2022-11-07T17:04:19.099Z,99663.78
2022-11-07T17:06:47.383Z,99668.16
2022-11-07T17:09:20.309Z,99657.53
2022-11-07T17:11:47.300Z,99659.47
2022-11-07T17:14:14.001Z,99656.97
2022-11-07T17:16:44.146Z,99650.13
2022-11-07T17:19:12.217Z,99650.19
2022-11-07T17:21:46.518Z,99638.06
2022-11-07T17:24:13.909Z,99653.19
2022-11-07T17:26:40.787Z,99653.09
2022-11-07T17:29:14.773Z,99651.47
2022-11-07T17:31:45.353Z,99652.41
2022-11-07T17:34:11.946Z,99650.59
2022-11-07T17:36:51.361Z,99650.75
2022-11-07T17:39:21.416Z,99650.84
2022-11-07T17:41:50.238Z,99652.72
2022-11-07T17:44:18.416Z,99648.38
2022-11-07T17:46:47.830Z,99651.16
2022-11-07T17:49:17.331Z,99648.69
2022-11-07T17:51:44.445Z,99648.81
2022-11-07T17:54:12.904Z,99646.34
2022-11-07T17:56:39.593Z,99653.59
2022-11-07T17:59:10.536Z,99639.59
2022-11-07T18:01:38.694Z,99638.78
2022-11-07T18:04:07.301Z,99638.09
2022-11-07T18:06:36.815Z,99626.66
2022-11-07T18:09:08.234Z,99630.31
2022-11-07T18:11:36.026Z,99636.53
2022-11-07T18:14:02.731Z,99631.25
2022-11-07T18:16:34.711Z,99623.47
2022-11-07T18:19:02.136Z,99635.06
2022-11-07T18:21:29.625Z,99635.06
2022-11-07T18:23:57.198Z,99634.34
2022-11-07T18:26:30.319Z,99633.50
2022-11-07T18:29:01.754Z,99629.22
2022-11-07T18:31:28.458Z,99632.81
2022-11-07T18:34:00.174Z,99628.44
2022-11-07T18:36:27.837Z,99621.50
2022-11-07T18:38:54.500Z,99633.97
2022-11-07T18:41:25.497Z,99626.09
2022-11-07T18:43:54.164Z,99631.41
2022-11-07T18:46:21.941Z,99622.66
2022-11-07T18:48:50.494Z,99617.53
2022-11-07T18:51:19.557Z,99617.53
2022-11-07T18:53:46.177Z,99617.69
2022-11-07T18:56:14.279Z,99615.97
2022-11-07T18:58:42.522Z,99608.13
2022-11-07T19:01:15.673Z,99602.03
2022-11-07T19:03:45.213Z,99605.69
2022-11-07T19:06:17.691Z,99607.56
2022-11-07T19:08:47.331Z,99597.97
2022-11-07T19:11:16.563Z,99593.53
2022-11-07T19:13:45.766Z,99590.13
2022-11-07T19:16:18.188Z,99597.28
2022-11-07T19:18:49.358Z,99592.94
2022-11-07T19:21:19.635Z,99582.41
2022-11-07T19:23:47.787Z,99592.28
2022-11-07T19:26:14.699Z,99582.00
2022-11-07T19:28:41.725Z,99581.16
2022-11-07T19:31:12.747Z,99574.94
2022-11-07T19:33:40.913Z,99576.56
2022-11-07T19:36:15.234Z,99576.56
2022-11-07T19:38:42.410Z,99577.25
2022-11-07T19:41:10.367Z,99565.81
2022-11-07T19:43:37.895Z,99574.56
2022-11-07T19:46:09.921Z,99577.97
2022-11-07T19:48:36.785Z,99586.69
2022-11-07T19:51:08.113Z,99576.09
2022-11-07T19:53:34.692Z,99578.75
2022-11-07T19:56:14.236Z,99575.97
2022-11-07T19:58:41.236Z,99583.81
2022-11-07T20:01:20.393Z,99592.44
2022-11-07T20:03:49.687Z,99583.59
2022-11-07T20:06:18.966Z,99581.66
2022-11-07T20:08:46.354Z,99585.06
2022-11-07T20:11:15.401Z,99577.13
2022-11-07T20:13:43.237Z,99583.25
2022-11-07T20:16:10.277Z,99582.34
2022-11-07T20:18:37.922Z,99571.75
2022-11-07T20:21:08.165Z,99577.91
2022-11-07T20:23:34.902Z,99597.38
2022-11-07T20:26:05.963Z,99588.66
2022-11-07T20:28:32.577Z,99596.50
2022-11-07T20:30:59.136Z,99597.28
2022-11-07T20:33:25.808Z,99597.22
2022-11-07T20:36:00.729Z,99600.72
2022-11-07T20:38:28.232Z,99596.28
2022-11-07T20:40:55.162Z,99603.28
2022-11-07T20:43:22.033Z,99603.22
2022-11-07T20:45:49.308Z,99601.44
2022-11-07T20:48:16.677Z,99610.13
2022-11-07T20:50:44.057Z,99610.13
2022-11-07T20:53:10.951Z,99610.97
2022-11-07T20:55:43.667Z,99613.63
2022-11-07T20:58:11.141Z,99615.44
2022-11-07T21:00:39.431Z,99611.88
2022-11-07T21:03:06.764Z,99617.91
2022-11-07T21:05:33.642Z,99618.78
2022-11-07T21:08:00.212Z,99622.38
2022-11-07T21:10:26.827Z,99626.09
2022-11-07T21:12:53.384Z,99626.09
2022-11-07T21:15:19.943Z,99629.69
2022-11-07T21:17:46.613Z,99613.97
2022-11-07T21:20:16.539Z,99607.81
2022-11-07T21:22:43.151Z,99614.13
2022-11-07T21:25:09.983Z,99604.53
2022-11-07T21:27:36.908Z,99621.41
2022-11-07T21:30:06.010Z,99627.81
2022-11-07T21:32:33.337Z,99643.84
2022-11-07T21:34:59.941Z,99629.03
2022-11-07T21:37:26.581Z,99635.28
2022-11-07T21:39:53.228Z,99634.34
2022-11-07T21:42:19.887Z,99635.28
2022-11-07T21:44:46.880Z,99632.69
2022-11-07T21:47:13.544Z,99632.63
2022-11-07T21:49:40.130Z,99637.91
2022-11-07T21:52:06.764Z,99635.28
2022-11-07T21:54:33.371Z,99636.88
2022-11-07T21:57:00.324Z,99644.78
2022-11-07T21:59:27.128Z,99641.19
2022-11-07T22:01:54.925Z,99643.84
2022-11-07T22:04:21.724Z,99643.84
2022-11-07T22:06:48.568Z,99646.47
2022-11-07T22:09:17.425Z,99654.50
2022-11-07T22:11:44.326Z,99657.34
2022-11-07T22:14:16.432Z,99659.25
2022-11-07T22:16:43.291Z,99665.44
2022-11-07T22:19:12.780Z,99669.97
2022-11-07T22:21:40.189Z,99667.31
2022-11-07T22:24:07.132Z,99662.09
2022-11-07T22:26:41.438Z,99666.53
2022-11-07T22:29:08.121Z,99675.56
2022-11-07T22:31:37.175Z,99673.84
2022-11-07T22:34:04.421Z,99671.34
2022-11-07T22:36:31.031Z,99674.13
2022-11-07T22:38:58.561Z,99674.28
2022-11-07T22:41:27.269Z,99678.81
2022-11-07T22:43:54.803Z,99676.16
2022-11-07T22:46:27.198Z,99677.22
2022-11-07T22:48:54.777Z,99679.84
2022-11-07T22:51:29.677Z,99678.94
2022-11-07T22:54:06.281Z,99682.50
2022-11-07T22:56:35.332Z,99682.50
2022-11-07T22:59:02.629Z,99685.16
2022-11-07T23:01:35.221Z,99678.16
2022-11-07T23:04:01.873Z,99688.72
2022-11-07T23:06:29.462Z,99690.56
2022-11-07T23:08:57.875Z,99691.47
2022-11-07T23:11:47.519Z,99701.16
2022-11-07T23:14:18.110Z,99700.31
2022-11-07T23:16:48.099Z,99692.38
2022-11-07T23:19:17.164Z,99700.38
2022-11-07T23:21:44.127Z,99695.09
2022-11-07T23:24:11.049Z,99695.09
2022-11-07T23:26:40.730Z,99703.03
2022-11-07T23:29:12.224Z,99703.88
2022-11-07T23:31:41.235Z,99695.94
2022-11-07T23:34:08.744Z,99696.03
2022-11-07T23:36:36.062Z,99701.31
2022-11-07T23:39:05.286Z,99706.63
2022-11-07T23:41:31.944Z,99717.19
2022-11-07T23:43:59.220Z,99718.09
2022-11-07T23:46:44.411Z,99722.53
2022-11-07T23:49:29.525Z,99723.47
2022-11-07T23:51:56.270Z,99712.94
2022-11-07T23:54:41.726Z,99720.97
2022-11-07T23:57:08.321Z,99725.47
2022-11-07T23:59:54.754Z,99728.19
